Time;durP1;ratioP1;P1;durP2;ratioP2;P2;SDS_P1;SDS_P2;PMS_P1;PMS_P2;Temp;Humidity;BMP_temperature;BMP_pressure;BME280_temperature;BME280_humidity;BME280_pressure;Samples;Min_cycle;Max_cycle;Signal;HPM_P1;HPM_P2
2021/10/12 00:02:01;;;;;;;12.90;5.20;;;;;;;;;;5075439;28;20222;-75
2021/10/12 00:04:28;;;;;;;10.10;3.60;;;;;;;;;;5106934;28;20216;-74
2021/10/12 00:06:55;;;;;;;10.13;4.00;;;;;;;;;;5074424;28;20197;-75
2021/10/12 00:09:23;;;;;;;8.73;4.10;;;;;;;;;;5077475;28;20574;-75
2021/10/12 00:11:52;;;;;;;4.80;3.47;;;;;;;;;;5085961;28;20185;-74
2021/10/12 00:14:21;;;;;;;8.87;3.87;;;;;;;;;;5091063;28;20203;-74
2021/10/12 00:16:48;;;;;;;9.53;3.90;;;;;;;;;;5091692;28;20207;-74
2021/10/12 00:19:16;;;;;;;10.60;4.43;;;;;;;;;;5094016;28;20678;-74
2021/10/12 00:21:43;;;;;;;8.77;3.97;;;;;;;;;;5098892;28;20203;-75
2021/10/12 00:24:10;;;;;;;9.50;3.83;;;;;;;;;;5093087;28;20236;-74
2021/10/12 00:26:38;;;;;;;8.37;3.87;;;;;;;;;;5091832;28;20207;-74
2021/10/12 00:29:05;;;;;;;6.53;3.50;;;;;;;;;;5113377;28;20204;-75
2021/10/12 00:31:34;;;;;;;10.47;3.97;;;;;;;;;;5100777;28;20730;-75
2021/10/12 00:34:01;;;;;;;8.00;3.50;;;;;;;;;;5094080;28;20194;-74
2021/10/12 00:36:29;;;;;;;10.63;4.07;;;;;;;;;;5093905;28;20202;-75
2021/10/12 00:38:56;;;;;;;9.17;4.33;;;;;;;;;;5093629;28;20203;-75
2021/10/12 00:41:24;;;;;;;8.07;3.90;;;;;;;;;;5093029;28;20205;-75
2021/10/12 00:43:51;;;;;;;7.50;3.80;;;;;;;;;;5085811;28;20192;-74
2021/10/12 00:46:19;;;;;;;11.10;4.10;;;;;;;;;;5082674;28;20208;-76
2021/10/12 00:48:47;;;;;;;8.30;3.87;;;;;;;;;;5092841;28;20205;-75
2021/10/12 00:51:15;;;;;;;6.50;3.63;;;;;;;;;;5093439;28;20212;-75
2021/10/12 00:53:42;;;;;;;6.53;3.80;;;;;;;;;;5093716;28;20210;-75
2021/10/12 00:56:12;;;;;;;5.77;3.70;;;;;;;;;;5081377;28;20210;-75
2021/10/12 00:58:39;;;;;;;8.07;4.07;;;;;;;;;;5089898;28;20205;-74
2021/10/12 01:01:07;;;;;;;9.33;3.70;;;;;;;;;;5074501;28;20205;-75
2021/10/12 01:03:34;;;;;;;8.27;3.80;;;;;;;;;;5113518;27;20225;-75
2021/10/12 01:06:03;;;;;;;7.07;3.67;;;;;;;;;;5096103;28;20221;-75
2021/10/12 01:08:31;;;;;;;8.80;3.57;;;;;;;;;;5084795;28;20209;-75
2021/10/12 01:10:58;;;;;;;10.20;3.80;;;;;;;;;;5092373;28;20674;-75
2021/10/12 01:13:26;;;;;;;12.33;3.73;;;;;;;;;;5075662;28;20221;-74
2021/10/12 01:15:54;;;;;;;8.53;3.30;;;;;;;;;;5075212;28;20189;-75
2021/10/12 01:18:22;;;;;;;7.03;3.30;;;;;;;;;;5081491;28;20211;-73
2021/10/12 01:20:53;;;;;;;8.63;3.40;;;;;;;;;;5072226;28;20204;-75
2021/10/12 01:23:20;;;;;;;7.30;3.37;;;;;;;;;;5091411;28;20250;-74
2021/10/12 01:25:48;;;;;;;7.50;3.40;;;;;;;;;;5093146;28;20225;-74
2021/10/12 01:28:15;;;;;;;9.07;3.10;;;;;;;;;;5092818;28;20209;-74
2021/10/12 01:30:43;;;;;;;6.77;3.23;;;;;;;;;;5090933;28;20575;-74
2021/10/12 01:33:11;;;;;;;5.40;2.90;;;;;;;;;;5078853;28;20217;-73
2021/10/12 01:35:38;;;;;;;7.57;3.30;;;;;;;;;;5074078;28;20198;-74
2021/10/12 01:38:07;;;;;;;5.97;2.80;;;;;;;;;;5083743;28;20201;-75
2021/10/12 01:40:35;;;;;;;7.47;2.70;;;;;;;;;;5090545;28;20204;-74
2021/10/12 01:43:02;;;;;;;5.77;2.80;;;;;;;;;;5098207;28;20198;-75
2021/10/12 01:45:30;;;;;;;6.47;2.73;;;;;;;;;;5101826;28;20615;-74
2021/10/12 01:47:57;;;;;;;5.13;2.77;;;;;;;;;;5092011;28;20202;-75
2021/10/12 01:50:24;;;;;;;6.70;3.03;;;;;;;;;;5095595;28;20212;-75
2021/10/12 01:52:52;;;;;;;4.87;2.87;;;;;;;;;;5091869;28;20204;-75
2021/10/12 01:55:23;;;;;;;4.97;2.70;;;;;;;;;;5090574;28;20202;-75
2021/10/12 01:57:51;;;;;;;4.53;2.80;;;;;;;;;;5100247;28;20211;-74
2021/10/12 02:00:18;;;;;;;5.90;3.00;;;;;;;;;;5084898;28;20202;-74
2021/10/12 02:02:46;;;;;;;4.43;2.37;;;;;;;;;;5081653;28;20580;-74
2021/10/12 02:05:13;;;;;;;4.60;2.77;;;;;;;;;;5072814;28;20258;-75
2021/10/12 02:07:40;;;;;;;4.50;2.57;;;;;;;;;;5091697;28;20213;-75
2021/10/12 02:10:08;;;;;;;3.67;2.47;;;;;;;;;;5083575;28;20203;-75
2021/10/12 02:12:37;;;;;;;4.43;2.40;;;;;;;;;;5086025;28;20198;-74
2021/10/12 02:15:07;;;;;;;4.47;2.70;;;;;;;;;;5071197;28;20226;-75
2021/10/12 02:17:34;;;;;;;6.10;2.40;;;;;;;;;;5089190;28;20575;-74
2021/10/12 02:20:04;;;;;;;5.20;2.57;;;;;;;;;;5097277;28;20198;-74
2021/10/12 02:22:31;;;;;;;5.67;2.67;;;;;;;;;;5090451;28;20310;-74
2021/10/12 02:24:59;;;;;;;3.70;2.70;;;;;;;;;;5072633;28;20223;-74
2021/10/12 02:27:26;;;;;;;5.23;2.30;;;;;;;;;;5071542;28;20210;-76
2021/10/12 02:29:55;;;;;;;4.60;2.50;;;;;;;;;;5086337;28;20244;-75
2021/10/12 02:32:22;;;;;;;4.13;2.50;;;;;;;;;;5092024;28;20212;-75
2021/10/12 02:34:50;;;;;;;5.10;2.63;;;;;;;;;;5091692;28;20203;-74
2021/10/12 02:37:17;;;;;;;5.07;2.70;;;;;;;;;;5091590;28;20220;-75
2021/10/12 02:39:44;;;;;;;5.47;2.80;;;;;;;;;;5075934;28;20199;-74
2021/10/12 02:42:12;;;;;;;3.17;2.30;;;;;;;;;;5089125;28;20677;-74
2021/10/12 02:44:39;;;;;;;3.40;2.30;;;;;;;;;;5093011;28;20229;-74
2021/10/12 02:47:08;;;;;;;6.30;2.60;;;;;;;;;;5078477;28;20193;-75
2021/10/12 02:49:35;;;;;;;3.93;2.33;;;;;;;;;;5089832;28;20638;-75
2021/10/12 02:52:03;;;;;;;4.10;2.50;;;;;;;;;;5092989;28;20311;-75
2021/10/12 02:54:30;;;;;;;3.80;2.50;;;;;;;;;;5078319;28;20285;-74
2021/10/12 02:56:57;;;;;;;4.70;2.20;;;;;;;;;;5079561;28;20704;-75
2021/10/12 02:59:24;;;;;;;5.50;2.70;;;;;;;;;;5079028;28;20631;-75
2021/10/12 03:01:52;;;;;;;4.50;2.70;;;;;;;;;;5079236;28;20683;-76
2021/10/12 03:04:20;;;;;;;5.57;2.50;;;;;;;;;;5115270;28;20641;-75
2021/10/12 03:06:48;;;;;;;5.17;2.50;;;;;;;;;;5116351;28;20229;-75
2021/10/12 03:09:15;;;;;;;4.63;2.50;;;;;;;;;;5116147;28;20720;-74
2021/10/12 03:11:42;;;;;;;4.17;2.53;;;;;;;;;;5094378;28;20198;-75
2021/10/12 03:14:09;;;;;;;3.73;2.60;;;;;;;;;;5075873;28;20297;-75
2021/10/12 03:16:36;;;;;;;3.97;2.57;;;;;;;;;;5075227;28;20248;-74
2021/10/12 03:19:03;;;;;;;4.33;2.53;;;;;;;;;;5082152;28;20293;-75
2021/10/12 03:21:35;;;;;;;6.20;2.50;;;;;;;;;;5076582;28;20926;-75
2021/10/12 03:24:02;;;;;;;6.00;2.37;;;;;;;;;;5074846;28;20616;-74
2021/10/12 03:26:31;;;;;;;6.00;2.40;;;;;;;;;;5100131;28;20589;-75
2021/10/12 03:28:58;;;;;;;4.80;2.70;;;;;;;;;;5116104;27;20205;-74
2021/10/12 03:31:26;;;;;;;5.93;2.63;;;;;;;;;;5115976;28;20287;-76
2021/10/12 03:33:53;;;;;;;5.77;2.53;;;;;;;;;;5095640;28;20236;-76
2021/10/12 03:36:20;;;;;;;4.63;2.43;;;;;;;;;;5095569;28;20230;-76
2021/10/12 03:38:48;;;;;;;4.53;2.47;;;;;;;;;;5094877;28;20244;-76
2021/10/12 03:41:16;;;;;;;5.57;3.10;;;;;;;;;;5094913;28;20636;-76
2021/10/12 03:43:43;;;;;;;4.50;2.70;;;;;;;;;;5100585;28;20213;-76
2021/10/12 03:46:10;;;;;;;6.90;3.20;;;;;;;;;;5087594;28;20217;-76
2021/10/12 03:48:37;;;;;;;4.93;2.80;;;;;;;;;;5086567;28;20291;-76
2021/10/12 03:51:04;;;;;;;6.77;3.00;;;;;;;;;;5081229;28;20204;-76
2021/10/12 03:53:32;;;;;;;6.13;3.33;;;;;;;;;;5093047;28;20295;-76
2021/10/12 03:56:00;;;;;;;3.77;2.70;;;;;;;;;;5076188;28;20290;-76
2021/10/12 03:58:27;;;;;;;5.03;2.80;;;;;;;;;;5074045;28;20242;-76
2021/10/12 04:00:55;;;;;;;6.83;3.10;;;;;;;;;;5102463;28;20232;-76
2021/10/12 04:03:22;;;;;;;7.27;3.50;;;;;;;;;;5093872;28;20299;-76
2021/10/12 04:05:49;;;;;;;9.60;3.93;;;;;;;;;;5114579;28;20230;-75
2021/10/12 04:08:17;;;;;;;9.43;3.80;;;;;;;;;;5091731;28;20306;-75
2021/10/12 04:10:44;;;;;;;10.70;4.67;;;;;;;;;;5083427;28;20636;-75
2021/10/12 04:13:12;;;;;;;10.90;5.07;;;;;;;;;;5091468;28;20221;-75
2021/10/12 04:15:40;;;;;;;8.13;4.50;;;;;;;;;;5090295;28;20711;-75
2021/10/12 04:18:10;;;;;;;13.13;4.27;;;;;;;;;;5112239;28;20290;-75
2021/10/12 04:20:37;;;;;;;8.77;4.70;;;;;;;;;;5074441;28;20202;-75
2021/10/12 04:23:08;;;;;;;6.60;3.93;;;;;;;;;;5079119;28;20232;-75
2021/10/12 04:25:35;;;;;;;8.17;3.70;;;;;;;;;;5079551;28;20221;-76
2021/10/12 04:28:04;;;;;;;10.63;3.37;;;;;;;;;;5087734;28;20198;-75
2021/10/12 04:30:33;;;;;;;14.03;4.47;;;;;;;;;;5082930;28;20263;-75
2021/10/12 04:33:00;;;;;;;5.57;3.67;;;;;;;;;;5078658;28;20279;-75
2021/10/12 04:35:27;;;;;;;7.87;4.20;;;;;;;;;;5073953;28;20234;-75
2021/10/12 04:37:54;;;;;;;22.40;5.10;;;;;;;;;;5090582;28;20289;-75
2021/10/12 04:40:21;;;;;;;7.83;4.87;;;;;;;;;;5082878;28;20318;-75
2021/10/12 04:42:48;;;;;;;10.63;4.93;;;;;;;;;;5084409;28;20233;-76
2021/10/12 04:45:16;;;;;;;8.63;4.67;;;;;;;;;;5081487;28;20285;-75
2021/10/12 04:47:44;;;;;;;7.87;4.77;;;;;;;;;;5087268;28;20200;-75
2021/10/12 04:50:12;;;;;;;10.37;4.77;;;;;;;;;;5088922;28;20209;-76
2021/10/12 04:52:40;;;;;;;11.77;3.90;;;;;;;;;;5086145;28;20296;-75
2021/10/12 04:55:08;;;;;;;19.57;3.97;;;;;;;;;;5090526;28;20779;-76
2021/10/12 04:57:35;;;;;;;16.03;3.87;;;;;;;;;;5080462;28;20704;-76
2021/10/12 05:00:02;;;;;;;16.03;4.50;;;;;;;;;;5096636;28;20205;-75
2021/10/12 05:02:29;;;;;;;11.53;3.70;;;;;;;;;;5084342;28;20317;-75
2021/10/12 05:04:58;;;;;;;12.33;4.00;;;;;;;;;;5080049;28;20217;-77
2021/10/12 05:07:25;;;;;;;13.43;4.40;;;;;;;;;;5101985;28;20317;-77
2021/10/12 05:09:52;;;;;;;8.17;3.77;;;;;;;;;;5105148;28;20237;-75
2021/10/12 05:12:19;;;;;;;8.13;3.30;;;;;;;;;;5093394;28;20202;-75
2021/10/12 05:14:47;;;;;;;6.20;3.27;;;;;;;;;;5083523;28;20729;-76
2021/10/12 05:17:21;;;;;;;7.10;3.20;;;;;;;;;;5091597;28;20668;-76
2021/10/12 05:19:48;;;;;;;4.53;3.27;;;;;;;;;;5082459;28;20217;-76
2021/10/12 05:22:16;;;;;;;4.47;2.93;;;;;;;;;;5084297;28;20236;-76
2021/10/12 05:24:44;;;;;;;11.03;2.90;;;;;;;;;;5081074;28;20289;-75
2021/10/12 05:27:13;;;;;;;5.60;3.07;;;;;;;;;;5092461;28;20302;-76
2021/10/12 05:29:40;;;;;;;3.77;2.87;;;;;;;;;;5088704;28;20293;-76
2021/10/12 05:32:09;;;;;;;3.87;3.23;;;4.30;99.90;;;;;;5092091;28;20240;-75
2021/10/12 05:34:36;;;;;;;5.87;3.00;;;4.30;99.90;;;;;;5108668;28;20287;-75
2021/10/12 05:37:03;;;;;;;5.27;2.80;;;4.20;99.90;;;;;;5092828;28;20284;-76
2021/10/12 05:39:32;;;;;;;8.70;3.00;;;4.30;99.90;;;;;;5079739;28;20219;-77
2021/10/12 05:41:59;;;;;;;9.57;3.10;;;4.20;99.90;;;;;;5081367;28;20292;-76
2021/10/12 05:44:26;;;;;;;6.73;2.93;;;;;;;;;;5083118;28;20203;-76
2021/10/12 05:46:53;;;;;;;3.40;2.90;;;;;;;;;;5090179;28;20247;-77
2021/10/12 05:49:21;;;;;;;4.13;3.00;;;;;;;;;;5075936;28;20201;-76
2021/10/12 05:51:49;;;;;;;8.00;2.80;;;;;;;;;;5085547;28;20296;-77
2021/10/12 05:54:18;;;;;;;3.90;3.30;;;;;;;;;;5080204;28;20247;-77
2021/10/12 05:56:54;;;;;;;5.87;3.10;;;;;;;;;;5080619;28;20197;-77
2021/10/12 05:59:22;;;;;;;4.40;3.13;;;;;;;;;;5083829;28;20196;-77
2021/10/12 06:01:50;;;;;;;4.00;3.27;;;;;;;;;;5091575;28;20304;-77
2021/10/12 06:04:18;;;;;;;6.27;3.40;;;;;;;;;;5083598;28;20224;-76
2021/10/12 06:06:46;;;;;;;6.13;3.37;;;;;;;;;;5088412;28;20253;-77
2021/10/12 06:09:14;;;;;;;5.83;3.43;;;;;;;;;;5082158;28;20290;-77
2021/10/12 06:11:41;;;;;;;7.90;3.80;;;;;;;;;;5083944;28;20675;-76
2021/10/12 06:14:09;;;;;;;4.90;3.50;;;4.10;99.90;;;;;;5085925;28;20244;-77
2021/10/12 06:16:36;;;;;;;9.73;3.67;;;4.30;99.90;;;;;;5086196;28;20278;-77
2021/10/12 06:19:04;;;;;;;15.33;4.50;;;4.30;99.90;;;;;;5093263;28;20224;-76
2021/10/12 06:21:31;;;;;;;16.10;4.73;;;4.40;99.90;;;;;;5081689;28;20235;-76
2021/10/12 06:23:58;;;;;;;16.67;4.77;;;4.40;99.90;;;;;;5077659;28;20298;-76
2021/10/12 06:26:25;;;;;;;16.37;4.80;;;4.30;99.90;;;;;;5084047;28;20231;-77
2021/10/12 06:28:52;;;;;;;11.03;4.70;;;4.30;99.90;;;;;;5090981;28;20224;-76
2021/10/12 06:31:20;;;;;;;11.20;4.60;;;4.30;99.90;;;;;;5083964;28;20636;-76
2021/10/12 06:33:48;;;;;;;9.30;4.83;;;4.30;99.90;;;;;;5077494;28;20235;-77
2021/10/12 06:36:15;;;;;;;18.47;5.40;;;4.40;99.90;;;;;;5088599;28;20588;-77
2021/10/12 06:38:42;;;;;;;8.27;4.53;;;4.40;99.90;;;;;;5080215;28;20201;-77
2021/10/12 06:41:10;;;;;;;18.07;4.90;;;4.50;99.90;;;;;;5093575;28;20217;-77
2021/10/12 06:43:37;;;;;;;6.60;4.40;;;4.50;99.90;;;;;;5088104;28;20684;-77
2021/10/12 06:46:04;;;;;;;7.93;4.30;;;4.60;99.90;;;;;;5089275;28;20316;-77
2021/10/12 06:48:32;;;;;;;6.77;4.10;;;4.60;99.90;;;;;;5086654;28;20291;-78
2021/10/12 06:50:59;;;;;;;6.60;4.53;;;4.70;99.90;;;;;;5085239;28;20292;-76
2021/10/12 06:53:26;;;;;;;5.87;4.20;;;4.70;99.90;;;;;;5080426;28;20289;-76
2021/10/12 06:55:53;;;;;;;27.50;5.13;;;4.80;99.90;;;;;;5080110;28;20288;-76
2021/10/12 06:58:20;;;;;;;9.87;4.43;;;4.90;99.90;;;;;;5079811;28;20210;-76
2021/10/12 07:00:47;;;;;;;13.83;4.77;;;5.10;99.90;;;;;;5083364;28;20288;-77
2021/10/12 07:03:14;;;;;;;9.03;4.47;;;5.20;99.90;;;;;;5086503;28;20790;-77
2021/10/12 07:05:42;;;;;;;6.23;4.20;;;5.40;99.90;;;;;;5087957;28;20740;-77
2021/10/12 07:08:09;;;;;;;28.03;5.13;;;5.50;99.90;;;;;;5071457;28;20305;-77
2021/10/12 07:10:36;;;;;;;5.00;4.00;;;5.70;99.90;;;;;;5080916;28;20285;-78
2021/10/12 07:13:03;;;;;;;5.77;4.10;;;5.90;99.90;;;;;;5076844;28;20292;-77
2021/10/12 07:15:30;;;;;;;9.60;3.70;;;6.10;99.90;;;;;;5074583;28;20711;-77
2021/10/12 07:17:56;;;;;;;7.53;3.73;;;6.30;99.90;;;;;;5089238;28;20243;-76
2021/10/12 07:20:23;;;;;;;9.63;4.10;;;6.40;99.90;;;;;;5081888;28;20292;-78
2021/10/12 07:22:52;;;;;;;4.00;3.60;;;6.60;99.90;;;;;;5078130;28;20321;-77
2021/10/12 07:25:20;;;;;;;7.87;3.60;;;;;;;;;;5086951;28;20225;-77
2021/10/12 07:27:48;;;;;;;4.70;3.07;;;7.70;99.90;;;;;;5080308;28;20309;-78
2021/10/12 07:30:18;;;;;;;3.67;3.03;;;;;;;;;;5079055;28;20645;-77
2021/10/12 07:32:48;;;;;;;3.50;3.00;;;;;;;;;;5072901;28;20237;-78
2021/10/12 07:35:18;;;;;;;4.07;2.87;;;;;;;;;;5087688;28;20289;-78
2021/10/12 07:37:47;;;;;;;3.83;2.50;;;10.30;99.90;;;;;;5076190;28;20282;-76
2021/10/12 07:40:18;;;;;;;4.17;2.43;;;;;;;;;;5082766;28;20234;-78
2021/10/12 07:42:47;;;;;;;2.30;2.10;;;;;;;;;;5089677;28;20278;-78
2021/10/12 07:45:16;;;;;;;2.90;2.30;;;;;;;;;;5085538;28;20212;-78
2021/10/12 07:47:46;;;;;;;3.33;2.33;;;;;;;;;;5082739;28;20305;-78
2021/10/12 07:50:16;;;;;;;3.77;2.27;;;;;;;;;;5086985;28;20218;-80
2021/10/12 07:52:45;;;;;;;3.47;2.53;;;;;;;;;;5077166;28;20579;-79
2021/10/12 07:55:26;;;;;;;2.60;2.40;;;;;;;;;;5083031;28;20226;-79
2021/10/12 07:57:57;;;;;;;3.70;2.30;;;;;;;;;;5094025;28;20201;-79
2021/10/12 08:00:28;;;;;;;2.50;2.23;;;;;;;;;;5085144;28;20222;-79
2021/10/12 08:02:55;;;;;;;2.60;2.33;;;;;;;;;;5094415;28;20261;-79
2021/10/12 08:05:23;;;;;;;2.70;2.50;;;;;;;;;;5091967;28;20264;-79
2021/10/12 08:07:50;;;;;;;2.87;2.53;;;;;;;;;;5077612;28;20253;-79
2021/10/12 08:10:17;;;;;;;2.87;2.30;;;;;;;;;;5076644;28;20277;-79
2021/10/12 08:12:46;;;;;;;2.53;2.23;;;;;;;;;;5119308;27;20282;-79
2021/10/12 08:15:15;;;;;;;2.97;2.40;;;;;;;;;;5085651;28;20214;-80
2021/10/12 08:17:42;;;;;;;3.43;2.30;;;;;;;;;;5086930;28;20285;-79
2021/10/12 08:20:10;;;;;;;3.03;2.20;;;;;;;;;;5087448;28;20281;-79
2021/10/12 08:22:37;;;;;;;2.77;2.40;;;;;;;;;;5088186;28;20314;-79
2021/10/12 08:25:08;;;;;;;4.73;2.40;;;;;;;;;;5098595;28;20202;-79
2021/10/12 08:27:38;;;;;;;3.10;2.47;;;;;;;;;;5074444;28;20310;-79
2021/10/12 08:30:09;;;;;;;2.67;2.47;;;;;;;;;;5074368;28;20231;-79
2021/10/12 08:32:41;;;;;;;3.10;2.50;;;;;;;;;;5076936;28;20282;-78
2021/10/12 08:35:12;;;;;;;4.17;2.43;;;;;;;;;;5080116;28;20199;-78
2021/10/12 08:37:42;;;;;;;5.23;2.80;;;;;;;;;;5075789;28;20282;-79
2021/10/12 08:40:15;;;;;;;3.53;2.80;;;;;;;;;;5083812;28;20222;-79
2021/10/12 08:42:48;;;;;;;3.50;3.10;;;;;;;;;;5093783;28;20198;-78
2021/10/12 08:45:20;;;;;;;6.07;2.80;;;;;;;;;;5080047;28;20289;-78
2021/10/12 08:47:52;;;;;;;3.33;2.77;;;;;;;;;;5085803;28;20226;-79
2021/10/12 08:50:24;;;;;;;3.80;3.00;;;;;;;;;;5091674;28;20588;-78
2021/10/12 08:52:54;;;;;;;5.70;2.90;;;;;;;;;;5089634;28;20198;-78
2021/10/12 08:55:23;;;;;;;3.80;3.40;;;;;;;;;;5081680;28;20249;-79
2021/10/12 08:57:53;;;;;;;3.97;3.53;;;;;;;;;;5073798;28;20238;-78
2021/10/12 09:00:21;;;;;;;5.10;3.60;;;;;;;;;;5074731;28;20231;-79
2021/10/12 09:03:19;;;;;;;3.90;2.80;;;;;;;;;;5111870;27;20305;-79
2021/10/12 09:05:55;;;;;;;4.20;2.77;;;;;;;;;;5082410;28;20202;-78
2021/10/12 09:08:29;;;;;;;4.27;3.37;;;;;;;;;;5095211;28;20240;-78
2021/10/12 09:10:59;;;;;;;4.67;3.50;;;;;;;;;;5076086;28;20698;-79
2021/10/12 09:13:29;;;;;;;5.90;2.90;;;;;;;;;;5093011;28;20285;-78
2021/10/12 09:16:08;;;;;;;4.73;3.37;;;;;;;;;;5084793;28;20298;-79
2021/10/12 09:18:58;;;;;;;8.67;3.20;;;;;;;;;;5085016;28;20316;-79
2021/10/12 09:21:28;;;;;;;4.63;2.77;;;;;;;;;;5077107;28;20289;-80
2021/10/12 09:24:03;;;;;;;4.33;3.10;;;;;;;;;;5080585;28;20226;-79
2021/10/12 09:26:33;;;;;;;6.40;2.90;;;;;;;;;;5080601;28;20199;-78
2021/10/12 09:29:04;;;;;;;5.83;2.80;;;;;;;;;;5077624;28;20701;-79
2021/10/12 09:31:35;;;;;;;6.20;3.00;;;;;;;;;;5086010;28;20202;-79
2021/10/12 09:34:06;;;;;;;7.17;3.10;;;;;;;;;;5082028;28;20195;-79
2021/10/12 09:36:35;;;;;;;8.30;3.20;;;;;;;;;;5076604;28;20233;-78
2021/10/12 09:39:02;;;;;;;8.37;3.90;;;;;;;;;;5077363;28;20230;-78
2021/10/12 09:41:30;;;;;;;7.13;3.30;;;;;;;;;;5072884;28;20283;-79
2021/10/12 09:44:14;;;;;;;7.60;3.10;;;;;;;;;;5088687;28;20670;-79
2021/10/12 09:46:46;;;;;;;5.37;2.73;;;;;;;;;;5083051;28;20742;-79
2021/10/12 09:49:28;;;;;;;9.77;3.60;;;;;;;;;;5084023;28;20230;-79
2021/10/12 09:51:58;;;;;;;10.27;3.63;;;;;;;;;;5084220;28;20233;-79
2021/10/12 09:54:26;;;;;;;8.73;3.63;;;;;;;;;;5080888;28;20231;-79
2021/10/12 09:56:56;;;;;;;6.67;3.97;;;;;;;;;;5087564;28;20290;-79
2021/10/12 09:59:23;;;;;;;10.30;4.00;;;;;;;;;;5086752;28;20270;-79
2021/10/12 10:01:55;;;;;;;10.83;3.93;;;;;;;;;;5082022;28;20249;-79
2021/10/12 10:04:27;;;;;;;9.50;3.70;;;;;;;;;;5085060;28;20277;-79
2021/10/12 10:06:55;;;;;;;8.03;3.90;;;;;;;;;;5089409;28;20277;-79
2021/10/12 10:09:24;;;;;;;11.53;4.77;;;;;;;;;;5077791;28;20589;-79
2021/10/12 10:11:51;;;;;;;8.37;5.07;;;;;;;;;;5080816;28;20197;-79
2021/10/12 10:14:19;;;;;;;9.23;5.23;;;;;;;;;;5092202;28;20285;-78
2021/10/12 10:16:49;;;;;;;14.93;7.50;;;;;;;;;;5084690;28;20285;-79
2021/10/12 10:19:19;;;;;;;12.47;8.20;;;;;;;;;;5076536;28;20635;-79
2021/10/12 10:21:48;;;;;;;10.57;6.83;;;;;;;;;;5087443;28;20600;-79
2021/10/12 10:24:22;;;;;;;11.37;6.30;;;;;;;;;;5086579;28;20322;-79
2021/10/12 10:26:50;;;;;;;12.63;6.30;;;;;;;;;;5087377;28;20289;-81
2021/10/12 10:29:22;;;;;;;13.83;6.83;;;;;;;;;;5092168;28;20224;-80
2021/10/12 10:31:51;;;;;;;18.10;7.78;;;;;;;;;;5076650;28;20263;-79
2021/10/12 10:34:32;;;;;;;12.30;7.03;;;;;;;;;;5079003;28;20290;-80
2021/10/12 10:37:18;;;;;;;11.30;6.07;;;;;;;;;;5083823;28;20284;-79
2021/10/12 10:39:47;;;;;;;7.82;5.00;;;;;;;;;;5079526;28;20608;-79
2021/10/12 10:42:41;;;;;;;10.27;5.10;;;;;;;;;;5089729;28;20297;-80
2021/10/12 10:45:09;;;;;;;12.95;5.30;;;;;;;;;;5076442;28;20285;-80
2021/10/12 10:47:47;;;;;;;9.27;4.47;;;;;;;;;;5086299;28;20306;-79
2021/10/12 10:50:15;;;;;;;8.70;4.32;;;;;;;;;;5085125;28;20612;-79
2021/10/12 10:52:45;;;;;;;10.95;4.28;;;;;;;;;;5077731;28;20229;-80
2021/10/12 10:55:16;;;;;;;10.05;4.32;;;;;;;;;;5071591;28;20253;-79
2021/10/12 10:58:00;;;;;;;12.95;4.45;;;;;;;;;;5082558;28;20199;-80
2021/10/12 11:00:31;;;;;;;7.53;3.92;;;;;;;;;;5071503;28;20290;-79
2021/10/12 11:03:00;;;;;;;9.30;4.15;;;;;;;;;;5090337;28;20226;-79
2021/10/12 11:05:40;;;;;;;9.25;3.67;;;;;;;;;;5086434;28;20226;-80
2021/10/12 11:08:14;;;;;;;7.60;4.35;;;;;;;;;;5070568;28;20268;-80
2021/10/12 11:10:44;;;;;;;6.57;4.22;;;;;;;;;;5072814;28;20261;-80
2021/10/12 11:13:14;;;;;;;9.77;4.30;;;;;;;;;;5086437;28;20644;-79
2021/10/12 11:15:50;;;;;;;13.77;4.65;;;;;;;;;;5075414;28;20290;-80
2021/10/12 11:18:19;;;;;;;7.63;4.30;;;;;;;;;;5075872;28;20230;-80
2021/10/12 11:20:51;;;;;;;8.55;4.20;;;;;;;;;;5093897;28;20278;-80
2021/10/12 11:23:25;;;;;;;8.25;4.18;;;;;;;;;;5077122;28;20273;-79
2021/10/12 11:26:00;;;;;;;7.93;3.70;;;;;;;;;;5074959;28;20276;-79
2021/10/12 11:28:29;;;;;;;9.80;4.25;;;;;;;;;;5080056;28;20276;-80
2021/10/12 11:31:02;;;;;;;8.65;3.38;;;;;;;;;;5085796;28;20765;-80
2021/10/12 11:33:31;;;;;;;10.93;4.18;;;;;;;;;;5088102;28;20284;-79
2021/10/12 11:36:01;;;;;;;7.70;3.70;;;;;;;;;;5094201;28;20233;-80
2021/10/12 11:38:34;;;;;;;7.55;3.40;;;;;;;;;;5089998;28;20575;-79
2021/10/12 11:41:15;;;;;;;10.35;3.47;;;;;;;;;;5083395;28;20669;-80
2021/10/12 11:43:46;;;;;;;9.70;5.00;;;;;;;;;;5094617;28;20669;-80
2021/10/12 11:46:15;;;;;;;8.18;4.47;;;;;;;;;;5093575;28;20287;-80
2021/10/12 11:48:44;;;;;;;11.80;5.40;;;;;;;;;;5087185;28;20278;-80
2021/10/12 11:51:21;;;;;;;9.65;5.22;;;;;;;;;;5092753;28;20302;-79
2021/10/12 11:53:50;;;;;;;10.77;5.70;;;;;;;;;;5080968;28;20277;-80
2021/10/12 11:56:22;;;;;;;12.02;6.13;;;;;;;;;;5079640;28;20281;-80
2021/10/12 11:58:52;;;;;;;11.90;5.57;;;;;;;;;;5094845;28;20229;-79
2021/10/12 12:01:29;;;;;;;11.48;6.15;;;;;;;;;;5088006;28;20282;-80
2021/10/12 12:03:59;;;;;;;10.88;5.90;;;;;;;;;;5091188;28;20632;-79
2021/10/12 12:06:30;;;;;;;10.23;5.80;;;;;;;;;;5096925;28;20201;-80
2021/10/12 12:09:01;;;;;;;11.77;6.40;;;;;;;;;;5082814;28;20223;-79
2021/10/12 12:11:33;;;;;;;9.50;5.50;;;;;;;;;;5074281;28;20262;-80
2021/10/12 12:14:04;;;;;;;13.13;5.70;;;;;;;;;;5076429;28;20383;-81
2021/10/12 12:16:34;;;;;;;10.52;5.05;;;;;;;;;;5082534;28;20195;-80
2021/10/12 12:19:04;;;;;;;9.32;5.20;;;;;;;;;;5079036;28;20191;-80
2021/10/12 12:21:35;;;;;;;11.88;4.88;;;;;;;;;;5092682;28;20295;-80
2021/10/12 12:24:06;;;;;;;7.15;4.28;;;;;;;;;;5093187;28;20253;-79
2021/10/12 12:26:37;;;;;;;9.98;4.85;;;;;;;;;;5081277;28;20198;-79
2021/10/12 12:29:19;;;;;;;7.50;3.65;;;;;;;;;;5081508;28;20625;-80
2021/10/12 12:31:52;;;;;;;8.23;3.10;;;;;;;;;;5082585;28;20301;-79
2021/10/12 12:34:29;;;;;;;7.32;3.55;;;;;;;;;;5075608;28;20278;-79
2021/10/12 12:36:57;;;;;;;9.55;3.30;;;;;;;;;;5074157;28;20230;-80
2021/10/12 12:39:36;;;;;;;8.52;3.58;;;21.00;99.90;;;;;;5073507;28;20282;-79
2021/10/12 12:42:08;;;;;;;6.03;3.08;;;;;;;;;;5073867;28;20191;-80
2021/10/12 12:44:36;;;;;;;8.18;3.05;;;;;;;;;;5073560;28;20199;-79
2021/10/12 12:47:07;;;;;;;5.20;2.85;;;;;;;;;;5073731;28;20227;-79
2021/10/12 12:49:35;;;;;;;8.93;3.15;;;;;;;;;;5087635;28;20198;-80
2021/10/12 12:52:03;;;;;;;7.28;2.90;;;;;;;;;;5093330;28;20305;-80
2021/10/12 12:54:35;;;;;;;9.43;2.53;;;;;;;;;;5075526;28;20642;-80
2021/10/12 12:57:15;;;;;;;3.97;2.60;;;20.80;99.90;;;;;;5073558;28;20286;-80
2021/10/12 12:59:45;;;;;;;8.85;2.90;;;;;;;;;;5091057;28;20199;-79
2021/10/12 13:02:21;;;;;;;7.35;2.60;;;;;;;;;;5093331;28;20300;-79
2021/10/12 13:04:50;;;;;;;5.63;2.50;;;;;;;;;;5081895;28;20287;-79
2021/10/12 13:07:19;;;;;;;6.63;2.70;;;;;;;;;;5091085;28;20285;-79
2021/10/12 13:09:51;;;;;;;6.95;2.97;;;;;;;;;;5079503;28;20686;-79
2021/10/12 13:12:22;;;;;;;5.88;2.78;;;;;;;;;;5073550;28;20211;-79
2021/10/12 13:14:51;;;;;;;5.85;2.53;;;;;;;;;;5083252;28;20198;-79
2021/10/12 13:17:21;;;;;;;7.05;2.65;;;;;;;;;;5079915;28;20899;-79
2021/10/12 13:19:50;;;;;;;5.38;2.38;;;;;;;;;;5089681;28;20300;-80
2021/10/12 13:22:19;;;;;;;7.00;2.33;;;;;;;;;;5091883;28;20201;-80
2021/10/12 13:24:46;;;;;;;7.63;2.55;;;;;;;;;;5082804;28;20310;-80
2021/10/12 13:27:13;;;;;;;5.80;2.38;;;22.00;99.90;;;;;;5080910;28;20233;-80
2021/10/12 13:29:42;;;;;;;8.50;2.85;;;21.00;99.90;;;;;;5081386;28;20285;-79
2021/10/12 13:32:09;;;;;;;5.70;2.83;;;;;;;;;;5088707;28;20353;-79
2021/10/12 13:34:37;;;;;;;5.68;2.65;;;;;;;;;;5080363;28;20290;-80
2021/10/12 13:37:05;;;;;;;9.93;2.90;;;;;;;;;;5082095;28;20274;-79
2021/10/12 13:39:34;;;;;;;5.15;2.58;;;;;;;;;;5090867;28;20222;-79
2021/10/12 13:42:03;;;;;;;4.88;2.38;;;;;;;;;;5084138;28;20300;-80
2021/10/12 13:44:32;;;;;;;6.47;2.78;;;;;;;;;;5084583;28;20285;-80
2021/10/12 13:47:02;;;;;;;6.57;2.28;;;;;;;;;;5083913;28;20277;-79
2021/10/12 13:49:31;;;;;;;5.38;2.42;;;;;;;;;;5081750;28;20290;-79
2021/10/12 13:51:59;;;;;;;6.10;2.40;;;;;;;;;;5090231;28;20252;-80
2021/10/12 13:54:26;;;;;;;7.03;3.20;;;20.40;99.90;;;;;;5075202;28;20265;-79
2021/10/12 13:56:54;;;;;;;7.10;2.65;;;;;;;;;;5112918;27;20252;-80
2021/10/12 13:59:22;;;;;;;7.32;3.03;;;;;;;;;;5082355;28;20202;-80
2021/10/12 14:01:51;;;;;;;5.30;2.63;;;;;;;;;;5074943;28;20243;-80
2021/10/12 14:04:22;;;;;;;10.15;2.90;;;;;;;;;;5093168;28;20285;-79
2021/10/12 14:06:51;;;;;;;6.40;2.92;;;;;;;;;;5093335;28;20210;-79
2021/10/12 14:09:20;;;;;;;6.10;2.75;;;;;;;;;;5085822;28;20210;-79
2021/10/12 14:11:49;;;;;;;8.15;3.13;;;;;;;;;;5092483;28;20803;-80
2021/10/12 14:14:18;;;;;;;7.10;2.60;;;;;;;;;;5091801;28;20285;-80
2021/10/12 14:16:48;;;;;;;7.22;2.90;;;;;;;;;;5078928;28;20209;-80
2021/10/12 14:19:17;;;;;;;6.82;2.80;;;;;;;;;;5072508;28;20289;-79
2021/10/12 14:21:48;;;;;;;9.40;3.33;;;;;;;;;;5076966;28;20194;-79
2021/10/12 14:24:17;;;;;;;9.20;3.08;;;;;;;;;;5085174;28;20293;-80
2021/10/12 14:26:47;;;;;;;7.47;4.25;;;;;;;;;;5088165;28;20237;-80
2021/10/12 14:29:16;;;;;;;7.50;3.45;;;;;;;;;;5088227;28;20286;-79
2021/10/12 14:31:46;;;;;;;7.15;2.97;;;;;;;;;;5091695;28;20202;-79
2021/10/12 14:34:15;;;;;;;6.82;3.00;;;;;;;;;;5076205;28;20286;-79
2021/10/12 14:36:45;;;;;;;7.10;2.45;;;;;;;;;;5071790;28;20811;-80
2021/10/12 14:39:16;;;;;;;7.25;2.50;;;;;;;;;;5086410;28;20693;-79